sensor_id;sensor_type;location;lat;lon;timestamp;pressure;altitude;pressure_sealevel;temperature;humidity
6835;BME280;3455;42.150;24.734;2022-11-14T00:02:22;66306.78;;;8.46;91.43
6835;BME280;3455;42.150;24.734;2022-11-14T00:04:48;66365.22;;;8.48;90.82
6835;BME280;3455;42.150;24.734;2022-11-14T00:07:15;66378.94;;;8.74;89.83
6835;BME280;3455;42.150;24.734;2022-11-14T00:09:42;66357.84;;;8.82;89.45
6835;BME280;3455;42.150;24.734;2022-11-14T00:15:32;66348.88;;;8.83;88.69
6835;BME280;3455;42.150;24.734;2022-11-14T00:17:58;66346.72;;;8.68;89.43
6835;BME280;3455;42.150;24.734;2022-11-14T00:20:25;66377.59;;;8.86;88.65
6835;BME280;3455;42.150;24.734;2022-11-14T00:22:52;66364.75;;;8.88;88.73
6835;BME280;3455;42.150;24.734;2022-11-14T00:25:18;66361.28;;;8.85;88.99
6835;BME280;3455;42.150;24.734;2022-11-14T00:27:45;66359.41;;;8.97;88.13
6835;BME280;3455;42.150;24.734;2022-11-14T00:30:12;66381.22;;;8.94;87.92
6835;BME280;3455;42.150;24.734;2022-11-14T00:32:40;66354.72;;;9.00;88.23
6835;BME280;3455;42.150;24.734;2022-11-14T00:35:08;66414.84;;;8.92;88.46
6835;BME280;3455;42.150;24.734;2022-11-14T00:37:34;66386.03;;;8.96;88.25
6835;BME280;3455;42.150;24.734;2022-11-14T00:40:02;66357.25;;;9.00;88.20
6835;BME280;3455;42.150;24.734;2022-11-14T00:42:29;66341.28;;;8.83;88.73
6835;BME280;3455;42.150;24.734;2022-11-14T00:44:55;66354.66;;;8.88;88.87
6835;BME280;3455;42.150;24.734;2022-11-14T00:47:22;66367.06;;;8.90;88.45
6835;BME280;3455;42.150;24.734;2022-11-14T00:49:50;66356.97;;;8.90;88.70
6835;BME280;3455;42.150;24.734;2022-11-14T00:52:17;66357.41;;;8.86;88.55
6835;BME280;3455;42.150;24.734;2022-11-14T00:54:43;66361.25;;;8.74;88.76
6835;BME280;3455;42.150;24.734;2022-11-14T00:57:10;66367.22;;;8.77;89.17
6835;BME280;3455;42.150;24.734;2022-11-14T00:59:37;66355.97;;;8.76;88.61
6835;BME280;3455;42.150;24.734;2022-11-14T01:02:03;66379.34;;;8.70;89.11
6835;BME280;3455;42.150;24.734;2022-11-14T01:04:30;66377.75;;;8.73;88.50
6835;BME280;3455;42.150;24.734;2022-11-14T01:06:58;66395.66;;;8.89;88.18
6835;BME280;3455;42.150;24.734;2022-11-14T01:09:25;66367.91;;;9.00;87.65
6835;BME280;3455;42.150;24.734;2022-11-14T01:15:13;66349.88;;;8.80;87.90
6835;BME280;3455;42.150;24.734;2022-11-14T01:17:40;66404.31;;;8.96;87.46
6835;BME280;3455;42.150;24.734;2022-11-14T01:20:07;66382.00;;;9.10;86.98
6835;BME280;3455;42.150;24.734;2022-11-14T01:22:35;66398.03;;;9.02;86.76
6835;BME280;3455;42.150;24.734;2022-11-14T01:28:24;66362.00;;;8.90;87.28
6835;BME280;3455;42.150;24.734;2022-11-14T01:30:50;66385.25;;;8.98;86.73
6835;BME280;3455;42.150;24.734;2022-11-14T01:33:17;66344.09;;;8.92;86.80
6835;BME280;3455;42.150;24.734;2022-11-14T01:35:44;66373.56;;;9.01;86.75
6835;BME280;3455;42.150;24.734;2022-11-14T01:38:13;66351.28;;;9.08;86.48
6835;BME280;3455;42.150;24.734;2022-11-14T01:40:41;66373.97;;;8.96;86.59
6835;BME280;3455;42.150;24.734;2022-11-14T01:43:27;66353.06;;;8.91;86.67
6835;BME280;3455;42.150;24.734;2022-11-14T01:45:57;66353.22;;;8.78;87.52
6835;BME280;3455;42.150;24.734;2022-11-14T01:48:28;66381.09;;;8.89;86.86
6835;BME280;3455;42.150;24.734;2022-11-14T01:50:59;66364.03;;;8.83;86.29
6835;BME280;3455;42.150;24.734;2022-11-14T01:56:54;66333.81;;;8.58;87.53
6835;BME280;3455;42.150;24.734;2022-11-14T01:59:26;66363.31;;;8.60;87.80
6835;BME280;3455;42.150;24.734;2022-11-14T02:01:56;66347.59;;;8.60;87.60
6835;BME280;3455;42.150;24.734;2022-11-14T02:04:27;66320.03;;;8.57;87.17
6835;BME280;3455;42.150;24.734;2022-11-14T02:06:59;66341.38;;;8.58;87.30
6835;BME280;3455;42.150;24.734;2022-11-14T02:09:28;66323.22;;;8.51;87.35
6835;BME280;3455;42.150;24.734;2022-11-14T02:15:20;66300.13;;;8.31;87.96
6835;BME280;3455;42.150;24.734;2022-11-14T02:17:47;66305.19;;;8.31;87.51
6835;BME280;3455;42.150;24.734;2022-11-14T02:20:18;66313.91;;;8.14;88.55
6835;BME280;3455;42.150;24.734;2022-11-14T02:22:45;66296.25;;;8.14;88.30
6835;BME280;3455;42.150;24.734;2022-11-14T02:25:15;66280.66;;;8.18;88.62
6835;BME280;3455;42.150;24.734;2022-11-14T02:27:42;66301.56;;;8.05;88.64
6835;BME280;3455;42.150;24.734;2022-11-14T02:30:12;66254.84;;;7.82;88.41
6835;BME280;3455;42.150;24.734;2022-11-14T02:32:39;66254.13;;;7.58;89.01
6835;BME280;3455;42.150;24.734;2022-11-14T02:35:06;66232.22;;;7.57;90.05
6835;BME280;3455;42.150;24.734;2022-11-14T02:37:34;66255.00;;;7.86;89.33
6835;BME280;3455;42.150;24.734;2022-11-14T02:40:01;66242.16;;;7.52;89.49
6835;BME280;3455;42.150;24.734;2022-11-14T02:42:28;66245.03;;;7.55;90.24
6835;BME280;3455;42.150;24.734;2022-11-14T02:44:55;66225.09;;;7.53;89.64
6835;BME280;3455;42.150;24.734;2022-11-14T02:47:21;66214.50;;;7.46;90.05
6835;BME280;3455;42.150;24.734;2022-11-14T02:49:49;66231.94;;;7.66;90.04
6835;BME280;3455;42.150;24.734;2022-11-14T02:52:16;66217.97;;;7.85;88.89
6835;BME280;3455;42.150;24.734;2022-11-14T02:54:44;66259.47;;;7.86;88.43
6835;BME280;3455;42.150;24.734;2022-11-14T02:57:11;66236.41;;;7.65;88.22
6835;BME280;3455;42.150;24.734;2022-11-14T02:59:37;66294.06;;;7.98;87.27
6835;BME280;3455;42.150;24.734;2022-11-14T03:02:04;66327.81;;;8.19;86.44
6835;BME280;3455;42.150;24.734;2022-11-14T03:04:31;66305.44;;;8.04;86.21
6835;BME280;3455;42.150;24.734;2022-11-14T03:06:57;66283.56;;;8.03;86.45
6835;BME280;3455;42.150;24.734;2022-11-14T03:09:24;66268.09;;;7.75;87.68
6835;BME280;3455;42.150;24.734;2022-11-14T03:11:52;66269.13;;;7.90;87.22
6835;BME280;3455;42.150;24.734;2022-11-14T03:14:19;66289.53;;;7.88;86.66
6835;BME280;3455;42.150;24.734;2022-11-14T03:16:45;66269.84;;;7.77;86.83
6835;BME280;3455;42.150;24.734;2022-11-14T03:19:12;66238.34;;;7.83;86.34
6835;BME280;3455;42.150;24.734;2022-11-14T03:21:39;66246.19;;;7.56;88.16
6835;BME280;3455;42.150;24.734;2022-11-14T03:24:06;66234.66;;;7.46;88.57
6835;BME280;3455;42.150;24.734;2022-11-14T03:26:33;66232.34;;;7.44;88.65
6835;BME280;3455;42.150;24.734;2022-11-14T03:29:01;66222.00;;;7.70;87.40
6835;BME280;3455;42.150;24.734;2022-11-14T03:31:27;66250.50;;;7.51;88.15
6835;BME280;3455;42.150;24.734;2022-11-14T03:33:54;66251.25;;;7.56;88.25
6835;BME280;3455;42.150;24.734;2022-11-14T03:39:42;66248.78;;;7.31;88.98
6835;BME280;3455;42.150;24.734;2022-11-14T03:42:09;66224.09;;;7.14;89.61
6835;BME280;3455;42.150;24.734;2022-11-14T03:44:37;66259.16;;;7.40;88.98
6835;BME280;3455;42.150;24.734;2022-11-14T03:47:04;66214.47;;;7.10;89.33
6835;BME280;3455;42.150;24.734;2022-11-14T03:49:31;66198.75;;;6.91;90.16
6835;BME280;3455;42.150;24.734;2022-11-14T03:51:57;66182.78;;;6.99;90.16
6835;BME280;3455;42.150;24.734;2022-11-14T03:54:24;66212.59;;;7.04;89.92
6835;BME280;3455;42.150;24.734;2022-11-14T03:56:51;66203.38;;;7.13;89.75
6835;BME280;3455;42.150;24.734;2022-11-14T03:59:17;66217.28;;;7.19;89.28
6835;BME280;3455;42.150;24.734;2022-11-14T04:01:45;66280.63;;;7.64;87.37
6835;BME280;3455;42.150;24.734;2022-11-14T04:04:13;66234.22;;;7.32;88.18
6835;BME280;3455;42.150;24.734;2022-11-14T04:06:40;66220.84;;;7.33;88.31
6835;BME280;3455;42.150;24.734;2022-11-14T04:09:08;66180.13;;;7.31;88.06
6835;BME280;3455;42.150;24.734;2022-11-14T04:11:35;66254.13;;;7.40;87.72
6835;BME280;3455;42.150;24.734;2022-11-14T04:14:02;66244.44;;;7.36;88.36
6835;BME280;3455;42.150;24.734;2022-11-14T04:16:29;66221.41;;;7.34;87.96
6835;BME280;3455;42.150;24.734;2022-11-14T04:18:57;66211.59;;;7.25;88.74
6835;BME280;3455;42.150;24.734;2022-11-14T04:21:23;66179.56;;;7.12;88.18
6835;BME280;3455;42.150;24.734;2022-11-14T04:23:50;66224.41;;;7.23;88.41
6835;BME280;3455;42.150;24.734;2022-11-14T04:26:17;66220.84;;;7.33;87.88
6835;BME280;3455;42.150;24.734;2022-11-14T04:28:43;66379.81;;;7.31;87.87
6835;BME280;3455;42.150;24.734;2022-11-14T04:31:10;66260.00;;;7.32;87.38
6835;BME280;3455;42.150;24.734;2022-11-14T04:33:37;66190.69;;;7.02;88.77
6835;BME280;3455;42.150;24.734;2022-11-14T04:36:06;66232.69;;;7.28;88.86
6835;BME280;3455;42.150;24.734;2022-11-14T04:38:32;66187.25;;;7.17;88.58
6835;BME280;3455;42.150;24.734;2022-11-14T04:40:59;66213.34;;;7.27;88.71
6835;BME280;3455;42.150;24.734;2022-11-14T04:43:26;66381.84;;;7.17;88.62
6835;BME280;3455;42.150;24.734;2022-11-14T04:49:15;66246.47;;;7.29;88.44
6835;BME280;3455;42.150;24.734;2022-11-14T04:51:43;66257.13;;;7.48;87.08
6835;BME280;3455;42.150;24.734;2022-11-14T04:54:09;66204.00;;;7.50;87.24
6835;BME280;3455;42.150;24.734;2022-11-14T04:56:36;66217.59;;;7.28;87.15
6835;BME280;3455;42.150;24.734;2022-11-14T05:02:24;66223.19;;;7.29;87.52
6835;BME280;3455;42.150;24.734;2022-11-14T05:04:51;66199.50;;;7.32;88.13
6835;BME280;3455;42.150;24.734;2022-11-14T05:07:19;66261.31;;;7.56;87.97
6835;BME280;3455;42.150;24.734;2022-11-14T05:09:46;66216.69;;;7.61;87.41
6835;BME280;3455;42.150;24.734;2022-11-14T05:12:12;66261.19;;;7.69;86.89
6835;BME280;3455;42.150;24.734;2022-11-14T05:18:01;66265.06;;;7.68;87.08
6835;BME280;3455;42.150;24.734;2022-11-14T05:20:28;66278.19;;;7.75;87.47
6835;BME280;3455;42.150;24.734;2022-11-14T05:22:56;66300.53;;;7.91;86.75
6835;BME280;3455;42.150;24.734;2022-11-14T05:25:22;66276.84;;;7.76;86.98
6835;BME280;3455;42.150;24.734;2022-11-14T05:27:49;66275.03;;;7.82;87.52
6835;BME280;3455;42.150;24.734;2022-11-14T05:30:16;66296.66;;;7.92;87.68
6835;BME280;3455;42.150;24.734;2022-11-14T05:32:43;66254.72;;;7.95;87.66
6835;BME280;3455;42.150;24.734;2022-11-14T05:35:10;66307.75;;;7.88;88.28
6835;BME280;3455;42.150;24.734;2022-11-14T05:37:37;66269.34;;;7.88;88.16
6835;BME280;3455;42.150;24.734;2022-11-14T05:40:06;66281.88;;;7.76;88.92
6835;BME280;3455;42.150;24.734;2022-11-14T05:42:32;66315.69;;;7.91;88.34
6835;BME280;3455;42.150;24.734;2022-11-14T05:44:59;66279.06;;;7.85;88.96
6835;BME280;3455;42.150;24.734;2022-11-14T05:50:47;66272.72;;;7.62;89.68
6835;BME280;3455;42.150;24.734;2022-11-14T05:56:37;66223.13;;;7.35;89.73
6835;BME280;3455;42.150;24.734;2022-11-14T05:59:04;66228.78;;;6.93;89.68
6835;BME280;3455;42.150;24.734;2022-11-14T06:01:31;66198.75;;;6.91;90.82
6835;BME280;3455;42.150;24.734;2022-11-14T06:03:57;66181.31;;;6.89;89.77
6835;BME280;3455;42.150;24.734;2022-11-14T06:06:24;66177.00;;;6.76;90.30
6835;BME280;3455;42.150;24.734;2022-11-14T06:08:51;66225.09;;;6.92;89.86
6835;BME280;3455;42.150;24.734;2022-11-14T06:11:19;66189.56;;;7.19;89.07
6835;BME280;3455;42.150;24.734;2022-11-14T06:13:47;66202.81;;;7.13;90.66
6835;BME280;3455;42.150;24.734;2022-11-14T06:16:16;66252.81;;;7.53;90.74
6835;BME280;3455;42.150;24.734;2022-11-14T06:18:43;66369.66;;;9.02;90.15
6835;BME280;3455;42.150;24.734;2022-11-14T06:21:13;66495.88;;;10.16;86.70
6835;BME280;3455;42.150;24.734;2022-11-14T06:23:40;66640.59;;;11.60;81.75
6835;BME280;3455;42.150;24.734;2022-11-14T06:26:13;66680.91;;;12.10;71.64
6835;BME280;3455;42.150;24.734;2022-11-14T06:28:40;66665.91;;;11.78;71.47
6835;BME280;3455;42.150;24.734;2022-11-14T06:31:09;66711.84;;;12.05;68.91
6835;BME280;3455;42.150;24.734;2022-11-14T06:33:36;66706.38;;;11.92;66.72
6835;BME280;3455;42.150;24.734;2022-11-14T06:36:04;66762.03;;;12.86;65.63
6835;BME280;3455;42.150;24.734;2022-11-14T06:41:53;67133.94;;;16.24;54.39
6835;BME280;3455;42.150;24.734;2022-11-14T06:47:43;67119.75;;;16.25;52.88
6835;BME280;3455;42.150;24.734;2022-11-14T06:50:10;67135.94;;;16.85;49.21
6835;BME280;3455;42.150;24.734;2022-11-14T06:52:37;67291.00;;;17.72;47.89
6835;BME280;3455;42.150;24.734;2022-11-14T06:55:05;67305.78;;;17.94;46.61
6835;BME280;3455;42.150;24.734;2022-11-14T06:57:33;67300.22;;;17.76;45.68
6835;BME280;3455;42.150;24.734;2022-11-14T07:00:00;67198.00;;;17.12;47.50
6835;BME280;3455;42.150;24.734;2022-11-14T07:09:12;67258.56;;;17.98;45.75
6835;BME280;3455;42.150;24.734;2022-11-14T07:11:38;67375.25;;;18.42;44.72
6835;BME280;3455;42.150;24.734;2022-11-14T07:14:05;67370.34;;;18.78;43.65
6835;BME280;3455;42.150;24.734;2022-11-14T07:16:34;67493.59;;;19.82;41.05
6835;BME280;3455;42.150;24.734;2022-11-14T07:19:03;67468.06;;;19.37;41.08
6835;BME280;3455;42.150;24.734;2022-11-14T07:21:31;67447.31;;;19.01;41.70
6835;BME280;3455;42.150;24.734;2022-11-14T07:23:59;67451.78;;;19.23;41.83
6835;BME280;3455;42.150;24.734;2022-11-14T07:26:27;67485.22;;;19.77;40.85
6835;BME280;3455;42.150;24.734;2022-11-14T07:28:54;67533.97;;;20.00;39.97
6835;BME280;3455;42.150;24.734;2022-11-14T07:31:21;67592.03;;;20.69;38.47
6835;BME280;3455;42.150;24.734;2022-11-14T07:33:48;67530.50;;;19.97;39.92
6835;BME280;3455;42.150;24.734;2022-11-14T07:36:16;67487.78;;;19.77;40.90
6835;BME280;3455;42.150;24.734;2022-11-14T07:38:43;67455.94;;;19.58;40.95
6835;BME280;3455;42.150;24.734;2022-11-14T07:41:11;67491.47;;;19.90;39.18
6835;BME280;3455;42.150;24.734;2022-11-14T07:47:01;67720.66;;;21.73;36.62
6835;BME280;3455;42.150;24.734;2022-11-14T07:49:28;67699.19;;;21.59;37.90
6835;BME280;3455;42.150;24.734;2022-11-14T07:51:55;67715.22;;;21.75;36.26
6835;BME280;3455;42.150;24.734;2022-11-14T07:54:22;67798.97;;;22.20;35.43
6835;BME280;3455;42.150;24.734;2022-11-14T07:56:49;67692.00;;;21.44;37.34
6835;BME280;3455;42.150;24.734;2022-11-14T08:02:38;67854.34;;;22.96;34.85
6835;BME280;3455;42.150;24.734;2022-11-14T08:08:27;67792.41;;;22.68;35.21
6835;BME280;3455;42.150;24.734;2022-11-14T08:10:55;67781.81;;;22.23;36.51
6835;BME280;3455;42.150;24.734;2022-11-14T08:13:23;67951.72;;;23.72;33.81
6835;BME280;3455;42.150;24.734;2022-11-14T08:15:49;68047.81;;;24.38;33.11
6835;BME280;3455;42.150;24.734;2022-11-14T08:18:18;68118.38;;;24.86;32.38
6835;BME280;3455;42.150;24.734;2022-11-14T08:20:45;68112.16;;;24.95;32.17
6835;BME280;3455;42.150;24.734;2022-11-14T08:26:34;68177.56;;;25.43;31.50
6835;BME280;3455;42.150;24.734;2022-11-14T08:29:01;68021.00;;;24.19;33.83
6835;BME280;3455;42.150;24.734;2022-11-14T08:31:28;68198.81;;;25.39;32.51
6835;BME280;3455;42.150;24.734;2022-11-14T08:37:18;68311.13;;;26.28;30.66
6835;BME280;3455;42.150;24.734;2022-11-14T08:39:45;68162.16;;;25.20;32.69
6835;BME280;3455;42.150;24.734;2022-11-14T08:42:12;68252.66;;;25.86;31.89
6835;BME280;3455;42.150;24.734;2022-11-14T08:44:39;68418.69;;;27.04;30.12
6835;BME280;3455;42.150;24.734;2022-11-14T08:47:05;68332.88;;;26.52;29.80
6835;BME280;3455;42.150;24.734;2022-11-14T08:49:32;68538.47;;;27.77;29.24
6835;BME280;3455;42.150;24.734;2022-11-14T08:51:59;68547.13;;;28.12;27.83
6835;BME280;3455;42.150;24.734;2022-11-14T08:57:51;68249.28;;;26.24;31.13
6835;BME280;3455;42.150;24.734;2022-11-14T09:00:19;68166.00;;;25.42;31.93
6835;BME280;3455;42.150;24.734;2022-11-14T09:02:46;68354.28;;;26.52;30.38
6835;BME280;3455;42.150;24.734;2022-11-14T09:08:35;68485.28;;;27.44;30.16
6835;BME280;3455;42.150;24.734;2022-11-14T09:14:25;68711.25;;;29.12;27.03
6835;BME280;3455;42.150;24.734;2022-11-14T09:16:52;68713.19;;;29.23;27.26
6835;BME280;3455;42.150;24.734;2022-11-14T09:19:19;68363.81;;;26.70;29.88
6835;BME280;3455;42.150;24.734;2022-11-14T09:25:08;68406.09;;;27.11;30.08
6835;BME280;3455;42.150;24.734;2022-11-14T09:27:35;68527.72;;;27.90;28.89
6835;BME280;3455;42.150;24.734;2022-11-14T09:30:05;68515.06;;;27.98;29.22
6835;BME280;3455;42.150;24.734;2022-11-14T09:35:56;68816.16;;;29.97;26.38
6835;BME280;3455;42.150;24.734;2022-11-14T09:38:23;68608.59;;;28.52;28.15
6835;BME280;3455;42.150;24.734;2022-11-14T09:40:58;68697.47;;;29.02;28.21
6835;BME280;3455;42.150;24.734;2022-11-14T09:43:55;68675.47;;;28.85;27.83
6835;BME280;3455;42.150;24.734;2022-11-14T09:46:36;68804.38;;;29.66;26.82
6835;BME280;3455;42.150;24.734;2022-11-14T09:49:08;68995.16;;;31.12;24.79
6835;BME280;3455;42.150;24.734;2022-11-14T09:55:02;69103.66;;;31.24;24.31
6835;BME280;3455;42.150;24.734;2022-11-14T09:57:30;69078.88;;;31.43;23.82
6835;BME280;3455;42.150;24.734;2022-11-14T09:59:57;69042.94;;;31.53;23.59
6835;BME280;3455;42.150;24.734;2022-11-14T10:02:36;69041.56;;;31.38;24.09
6835;BME280;3455;42.150;24.734;2022-11-14T10:05:21;68878.53;;;30.31;24.33
6835;BME280;3455;42.150;24.734;2022-11-14T10:07:58;68887.44;;;30.22;24.50
6835;BME280;3455;42.150;24.734;2022-11-14T10:10:38;68855.78;;;30.04;25.40
6835;BME280;3455;42.150;24.734;2022-11-14T10:13:15;69343.31;;;32.82;22.63
6835;BME280;3455;42.150;24.734;2022-11-14T10:15:47;69253.94;;;32.36;23.36
6835;BME280;3455;42.150;24.734;2022-11-14T10:18:34;69365.50;;;33.04;22.54
6835;BME280;3455;42.150;24.734;2022-11-14T10:21:12;69194.56;;;32.03;22.79
6835;BME280;3455;42.150;24.734;2022-11-14T10:23:50;68886.25;;;30.21;24.17
6835;BME280;3455;42.150;24.734;2022-11-14T10:26:26;68954.19;;;30.74;24.62
6835;BME280;3455;42.150;24.734;2022-11-14T10:29:24;68992.09;;;31.00;24.47
6835;BME280;3455;42.150;24.734;2022-11-14T10:32:02;69334.50;;;33.00;21.62
6835;BME280;3455;42.150;24.734;2022-11-14T10:34:33;69289.34;;;32.63;22.03
6835;BME280;3455;42.150;24.734;2022-11-14T10:37:08;69053.63;;;31.47;24.27
6835;BME280;3455;42.150;24.734;2022-11-14T10:39:43;69117.25;;;31.77;23.32
6835;BME280;3455;42.150;24.734;2022-11-14T10:42:14;68867.28;;;29.96;26.03
6835;BME280;3455;42.150;24.734;2022-11-14T10:44:48;68995.06;;;31.02;24.24
6835;BME280;3455;42.150;24.734;2022-11-14T10:47:20;68978.94;;;30.75;24.75
6835;BME280;3455;42.150;24.734;2022-11-14T10:49:53;68788.97;;;29.64;26.27
6835;BME280;3455;42.150;24.734;2022-11-14T10:52:34;68732.25;;;29.37;26.88
6835;BME280;3455;42.150;24.734;2022-11-14T10:55:05;68773.88;;;29.64;26.11
6835;BME280;3455;42.150;24.734;2022-11-14T10:57:35;68844.28;;;30.12;25.47
6835;BME280;3455;42.150;24.734;2022-11-14T11:00:10;68989.16;;;30.97;26.05
6835;BME280;3455;42.150;24.734;2022-11-14T11:02:47;69028.47;;;31.18;24.34
6835;BME280;3455;42.150;24.734;2022-11-14T11:05:17;68759.09;;;29.67;26.60
6835;BME280;3455;42.150;24.734;2022-11-14T11:07:45;68997.66;;;30.82;25.11
6835;BME280;3455;42.150;24.734;2022-11-14T11:10:31;68994.06;;;30.74;24.81
6835;BME280;3455;42.150;24.734;2022-11-14T11:13:31;69023.75;;;30.93;24.22
6835;BME280;3455;42.150;24.734;2022-11-14T11:15:59;68942.81;;;30.71;25.11
6835;BME280;3455;42.150;24.734;2022-11-14T11:18:28;69002.59;;;31.00;24.67
6835;BME280;3455;42.150;24.734;2022-11-14T11:21:08;69279.50;;;32.68;22.60
6835;BME280;3455;42.150;24.734;2022-11-14T11:23:36;69237.09;;;32.40;23.12
6835;BME280;3455;42.150;24.734;2022-11-14T11:26:19;69123.69;;;31.78;23.50
6835;BME280;3455;42.150;24.734;2022-11-14T11:29:01;69117.28;;;31.81;24.29
6835;BME280;3455;42.150;24.734;2022-11-14T11:34:50;69355.53;;;33.20;22.09
6835;BME280;3455;42.150;24.734;2022-11-14T11:37:22;68858.25;;;30.15;24.86
6835;BME280;3455;42.150;24.734;2022-11-14T11:39:51;68886.09;;;30.49;25.02
6835;BME280;3455;42.150;24.734;2022-11-14T11:42:22;69087.94;;;31.65;23.50
6835;BME280;3455;42.150;24.734;2022-11-14T11:48:15;68965.88;;;30.95;24.86
6835;BME280;3455;42.150;24.734;2022-11-14T11:50:44;69008.66;;;31.19;24.45
6835;BME280;3455;42.150;24.734;2022-11-14T11:53:16;69045.47;;;31.69;23.97
6835;BME280;3455;42.150;24.734;2022-11-14T11:55:46;69147.19;;;31.94;23.55
6835;BME280;3455;42.150;24.734;2022-11-14T11:58:19;68957.34;;;30.70;25.19
6835;BME280;3455;42.150;24.734;2022-11-14T12:00:50;68870.19;;;30.35;25.49
6835;BME280;3455;42.150;24.734;2022-11-14T12:03:19;69151.06;;;31.79;24.00
6835;BME280;3455;42.150;24.734;2022-11-14T12:05:52;69003.81;;;31.05;24.45
6835;BME280;3455;42.150;24.734;2022-11-14T12:08:31;68919.56;;;30.73;24.93
6835;BME280;3455;42.150;24.734;2022-11-14T12:11:03;69080.59;;;31.40;24.84
6835;BME280;3455;42.150;24.734;2022-11-14T12:19:55;68819.28;;;30.13;25.79
6835;BME280;3455;42.150;24.734;2022-11-14T12:22:49;69016.91;;;31.26;25.34
6835;BME280;3455;42.150;24.734;2022-11-14T12:25:34;68858.41;;;30.24;26.17
6835;BME280;3455;42.150;24.734;2022-11-14T12:31:26;68908.25;;;30.54;25.33
6835;BME280;3455;42.150;24.734;2022-11-14T12:33:57;68954.97;;;30.67;25.39
6835;BME280;3455;42.150;24.734;2022-11-14T12:36:28;68808.56;;;29.95;26.32
6835;BME280;3455;42.150;24.734;2022-11-14T12:38:56;68975.94;;;31.09;25.11
6835;BME280;3455;42.150;24.734;2022-11-14T12:41:27;68902.19;;;30.35;25.54
6835;BME280;3455;42.150;24.734;2022-11-14T12:44:15;68886.94;;;30.47;25.38
6835;BME280;3455;42.150;24.734;2022-11-14T12:47:11;69002.13;;;31.09;25.21
6835;BME280;3455;42.150;24.734;2022-11-14T12:52:44;68766.38;;;29.67;27.04
6835;BME280;3455;42.150;24.734;2022-11-14T12:58:25;68641.22;;;29.03;27.51
6835;BME280;3455;42.150;24.734;2022-11-14T13:01:09;68797.84;;;30.17;26.24
6835;BME280;3455;42.150;24.734;2022-11-14T13:07:23;68556.41;;;28.11;28.84
6835;BME280;3455;42.150;24.734;2022-11-14T13:10:02;68071.69;;;24.86;34.14
6835;BME280;3455;42.150;24.734;2022-11-14T13:12:31;67980.00;;;24.10;35.38
6835;BME280;3455;42.150;24.734;2022-11-14T13:15:25;67796.66;;;22.65;38.65
6835;BME280;3455;42.150;24.734;2022-11-14T13:21:31;67533.59;;;20.68;44.51
6835;BME280;3455;42.150;24.734;2022-11-14T13:27:35;67408.78;;;19.71;47.99
6835;BME280;3455;42.150;24.734;2022-11-14T13:30:03;67403.09;;;19.43;48.45
6835;BME280;3455;42.150;24.734;2022-11-14T13:33:04;67369.66;;;19.28;49.12
6835;BME280;3455;42.150;24.734;2022-11-14T13:35:44;67355.75;;;19.04;50.24
6835;BME280;3455;42.150;24.734;2022-11-14T13:41:44;67326.34;;;18.76;51.69
6835;BME280;3455;42.150;24.734;2022-11-14T13:50:41;67274.75;;;18.35;53.37
6835;BME280;3455;42.150;24.734;2022-11-14T13:56:34;67220.03;;;18.09;54.93
6835;BME280;3455;42.150;24.734;2022-11-14T14:05:31;67253.91;;;17.94;55.72
6835;BME280;3455;42.150;24.734;2022-11-14T14:08:12;67254.31;;;18.12;55.35
6835;BME280;3455;42.150;24.734;2022-11-14T14:10:42;67247.78;;;17.75;56.60
6835;BME280;3455;42.150;24.734;2022-11-14T14:13:27;67248.94;;;17.76;57.17
6835;BME280;3455;42.150;24.734;2022-11-14T14:16:03;67235.31;;;17.77;57.16
6835;BME280;3455;42.150;24.734;2022-11-14T14:18:47;67178.91;;;17.77;56.98
6835;BME280;3455;42.150;24.734;2022-11-14T14:21:28;67237.53;;;17.75;57.09
6835;BME280;3455;42.150;24.734;2022-11-14T14:27:24;67173.88;;;17.55;58.18
6835;BME280;3455;42.150;24.734;2022-11-14T14:33:15;67199.31;;;17.45;58.27
6835;BME280;3455;42.150;24.734;2022-11-14T14:35:49;67207.72;;;17.39;58.73
6835;BME280;3455;42.150;24.734;2022-11-14T14:38:24;67152.78;;;17.27;59.45
6835;BME280;3455;42.150;24.734;2022-11-14T14:40:53;67119.84;;;16.91;60.28
6835;BME280;3455;42.150;24.734;2022-11-14T14:43:29;67135.44;;;16.89;60.62
6835;BME280;3455;42.150;24.734;2022-11-14T14:45:57;67120.13;;;16.66;61.16
6835;BME280;3455;42.150;24.734;2022-11-14T14:48:26;67085.00;;;16.71;62.10
6835;BME280;3455;42.150;24.734;2022-11-14T14:50:55;67133.38;;;16.73;62.33
6835;BME280;3455;42.150;24.734;2022-11-14T14:53:24;67077.41;;;16.38;63.10
6835;BME280;3455;42.150;24.734;2022-11-14T14:55:54;67068.66;;;16.03;64.42
6835;BME280;3455;42.150;24.734;2022-11-14T14:58:26;67028.69;;;15.94;65.08
6835;BME280;3455;42.150;24.734;2022-11-14T15:00:57;66960.09;;;15.63;66.51
6835;BME280;3455;42.150;24.734;2022-11-14T15:03:26;66946.94;;;15.45;67.46
6835;BME280;3455;42.150;24.734;2022-11-14T15:05:58;66954.47;;;15.29;68.39
6835;BME280;3455;42.150;24.734;2022-11-14T15:08:25;66971.44;;;15.37;68.34
6835;BME280;3455;42.150;24.734;2022-11-14T15:10:56;66935.38;;;15.12;69.40
6835;BME280;3455;42.150;24.734;2022-11-14T15:13:25;66975.16;;;15.15;69.43
6835;BME280;3455;42.150;24.734;2022-11-14T15:15:53;66929.00;;;15.06;69.59
6835;BME280;3455;42.150;24.734;2022-11-14T15:18:23;66947.31;;;15.13;69.87
6835;BME280;3455;42.150;24.734;2022-11-14T15:21:08;66906.97;;;14.87;70.72
6835;BME280;3455;42.150;24.734;2022-11-14T15:23:36;66940.38;;;14.85;70.89
6835;BME280;3455;42.150;24.734;2022-11-14T15:26:10;66873.84;;;14.53;71.84
6835;BME280;3455;42.150;24.734;2022-11-14T15:28:39;66861.81;;;14.35;73.56
6835;BME280;3455;42.150;24.734;2022-11-14T15:31:15;66853.56;;;14.35;73.74
6835;BME280;3455;42.150;24.734;2022-11-14T15:33:42;66826.81;;;14.07;74.89
6835;BME280;3455;42.150;24.734;2022-11-14T15:36:11;66826.59;;;13.97;74.84
6835;BME280;3455;42.150;24.734;2022-11-14T15:38:38;66790.00;;;13.83;76.02
6835;BME280;3455;42.150;24.734;2022-11-14T15:41:15;66787.00;;;13.76;76.67
6835;BME280;3455;42.150;24.734;2022-11-14T15:43:49;66811.19;;;13.70;77.32
6835;BME280;3455;42.150;24.734;2022-11-14T15:46:26;66816.88;;;13.71;77.19
6835;BME280;3455;42.150;24.734;2022-11-14T15:48:53;66776.13;;;13.71;76.77
6835;BME280;3455;42.150;24.734;2022-11-14T15:51:39;66812.34;;;13.60;77.30
6835;BME280;3455;42.150;24.734;2022-11-14T15:54:19;66764.09;;;13.42;77.51
6835;BME280;3455;42.150;24.734;2022-11-14T15:56:46;66735.59;;;13.23;78.01
6835;BME280;3455;42.150;24.734;2022-11-14T15:59:15;66736.75;;;13.13;79.29